createdAt,value
2023-03-27T00:09:01.485Z,561
2023-03-27T00:29:01.490Z,561
2023-03-27T00:49:01.536Z,550
2023-03-27T01:09:01.543Z,556
2023-03-27T01:29:01.652Z,530
2023-03-27T01:49:01.615Z,561
2023-03-27T02:09:01.667Z,569
2023-03-27T02:29:01.731Z,531
2023-03-27T02:49:01.720Z,556
2023-03-27T03:09:01.776Z,551
2023-03-27T03:29:01.981Z,552
2023-03-27T03:49:01.876Z,539
2023-03-27T04:09:01.918Z,517
2023-03-27T04:29:01.944Z,539
2023-03-27T04:49:01.986Z,544
2023-03-27T05:09:02.018Z,516
2023-03-27T05:29:02.074Z,550
2023-03-27T05:49:02.104Z,532
2023-03-27T06:09:02.117Z,539
2023-03-27T06:29:02.173Z,530
2023-03-27T06:49:02.303Z,521
2023-03-27T07:09:02.273Z,531
2023-03-27T07:29:02.305Z,541
2023-03-27T07:49:02.298Z,516
2023-03-27T08:09:02.896Z,520
2023-03-27T08:29:02.383Z,492
2023-03-27T08:49:02.405Z,519
2023-03-27T09:09:02.442Z,486
2023-03-27T09:29:02.470Z,513
2023-03-27T09:49:02.510Z,502
2023-03-27T10:09:02.531Z,490
2023-03-27T10:29:02.556Z,502
2023-03-27T10:49:02.590Z,503
2023-03-27T11:09:02.610Z,483
2023-03-27T11:29:02.622Z,487
2023-03-27T11:49:02.667Z,468
2023-03-27T12:09:02.660Z,498
2023-03-27T12:29:02.697Z,489
2023-03-27T12:49:02.745Z,503
2023-03-27T13:09:02.751Z,492
2023-03-27T13:29:02.803Z,484
2023-03-27T13:49:02.808Z,471
2023-03-27T14:09:02.832Z,491
2023-03-27T14:29:02.859Z,497
2023-03-27T14:49:02.895Z,493
2023-03-27T15:09:02.930Z,497
2023-03-27T15:29:02.947Z,486
2023-03-27T15:49:02.964Z,481
2023-03-27T16:09:03.010Z,486
2023-03-27T16:29:03.033Z,488
2023-03-27T16:49:03.094Z,471
2023-03-27T17:09:03.107Z,473
2023-03-27T17:29:03.128Z,470
2023-03-27T17:49:03.147Z,477
2023-03-27T18:09:03.200Z,468
2023-03-27T18:29:03.265Z,483
2023-03-27T18:49:10.458Z,476
2023-03-27T19:09:03.297Z,469
2023-03-27T19:29:03.337Z,467
2023-03-27T19:49:03.358Z,467
2023-03-27T20:09:03.351Z,472
2023-03-27T20:29:03.398Z,466
2023-03-27T20:49:03.442Z,466
2023-03-27T21:09:03.507Z,458
2023-03-27T21:29:03.510Z,469
2023-03-27T21:49:03.570Z,458
2023-03-27T22:09:03.642Z,467
2023-03-27T22:29:03.630Z,460
2023-03-27T22:49:03.671Z,470
2023-03-27T23:09:03.699Z,456
2023-03-27T23:29:03.759Z,456
2023-03-27T23:49:03.779Z,442
